sensor_id;sensor_type;location;lat;lon;timestamp;P1;durP1;ratioP1;P2;durP2;ratioP2
64225;SDS011;50545;56.064;26.178;2023-03-21T00:01:50;12.18;;;7.43;;
64225;SDS011;50545;56.064;26.178;2023-03-21T00:04:19;12.38;;;7.28;;
64225;SDS011;50545;56.064;26.178;2023-03-21T00:06:48;12.20;;;6.80;;
64225;SDS011;50545;56.064;26.178;2023-03-21T00:09:15;12.57;;;7.13;;
64225;SDS011;50545;56.064;26.178;2023-03-21T00:11:43;13.70;;;8.18;;
64225;SDS011;50545;56.064;26.178;2023-03-21T00:14:10;13.23;;;8.88;;
64225;SDS011;50545;56.064;26.178;2023-03-21T00:16:40;13.23;;;8.30;;
64225;SDS011;50545;56.064;26.178;2023-03-21T00:19:11;11.88;;;7.00;;
64225;SDS011;50545;56.064;26.178;2023-03-21T00:21:39;13.63;;;8.50;;
64225;SDS011;50545;56.064;26.178;2023-03-21T00:24:28;12.98;;;7.60;;
64225;SDS011;50545;56.064;26.178;2023-03-21T00:26:56;13.95;;;9.13;;
64225;SDS011;50545;56.064;26.178;2023-03-21T00:29:43;13.05;;;8.50;;
64225;SDS011;50545;56.064;26.178;2023-03-21T00:32:10;12.85;;;9.18;;
64225;SDS011;50545;56.064;26.178;2023-03-21T00:34:38;12.18;;;8.93;;
64225;SDS011;50545;56.064;26.178;2023-03-21T00:37:14;11.25;;;6.93;;
64225;SDS011;50545;56.064;26.178;2023-03-21T00:39:45;11.55;;;8.18;;
64225;SDS011;50545;56.064;26.178;2023-03-21T00:42:15;11.25;;;6.60;;
64225;SDS011;50545;56.064;26.178;2023-03-21T00:44:42;9.90;;;5.72;;
64225;SDS011;50545;56.064;26.178;2023-03-21T00:47:10;9.40;;;5.05;;
64225;SDS011;50545;56.064;26.178;2023-03-21T00:49:38;8.85;;;5.75;;
64225;SDS011;50545;56.064;26.178;2023-03-21T00:52:09;6.72;;;4.25;;
64225;SDS011;50545;56.064;26.178;2023-03-21T00:54:56;5.15;;;3.00;;
64225;SDS011;50545;56.064;26.178;2023-03-21T00:57:23;5.47;;;3.28;;
64225;SDS011;50545;56.064;26.178;2023-03-21T01:00:04;5.38;;;3.08;;
64225;SDS011;50545;56.064;26.178;2023-03-21T01:02:38;5.15;;;2.88;;
64225;SDS011;50545;56.064;26.178;2023-03-21T01:05:35;4.93;;;3.08;;
64225;SDS011;50545;56.064;26.178;2023-03-21T01:08:23;4.35;;;3.10;;
64225;SDS011;50545;56.064;26.178;2023-03-21T01:11:00;3.70;;;2.45;;
64225;SDS011;50545;56.064;26.178;2023-03-21T01:13:30;3.40;;;2.20;;
64225;SDS011;50545;56.064;26.178;2023-03-21T01:16:02;3.47;;;2.28;;
64225;SDS011;50545;56.064;26.178;2023-03-21T01:18:31;3.05;;;2.17;;
64225;SDS011;50545;56.064;26.178;2023-03-21T01:21:00;3.95;;;2.35;;
64225;SDS011;50545;56.064;26.178;2023-03-21T01:25:58;3.38;;;2.13;;
64225;SDS011;50545;56.064;26.178;2023-03-21T01:28:26;5.13;;;2.05;;
64225;SDS011;50545;56.064;26.178;2023-03-21T01:30:54;3.38;;;2.10;;
64225;SDS011;50545;56.064;26.178;2023-03-21T01:33:22;3.20;;;2.40;;
64225;SDS011;50545;56.064;26.178;2023-03-21T01:35:49;3.25;;;2.30;;
64225;SDS011;50545;56.064;26.178;2023-03-21T01:38:28;3.83;;;2.30;;
64225;SDS011;50545;56.064;26.178;2023-03-21T01:40:58;3.58;;;2.30;;
64225;SDS011;50545;56.064;26.178;2023-03-21T01:43:34;3.72;;;2.45;;
64225;SDS011;50545;56.064;26.178;2023-03-21T01:48:32;4.13;;;2.30;;
64225;SDS011;50545;56.064;26.178;2023-03-21T01:51:01;3.25;;;2.17;;
64225;SDS011;50545;56.064;26.178;2023-03-21T01:53:29;2.97;;;2.00;;
64225;SDS011;50545;56.064;26.178;2023-03-21T01:56:00;5.63;;;2.13;;
64225;SDS011;50545;56.064;26.178;2023-03-21T01:58:32;3.35;;;2.00;;
64225;SDS011;50545;56.064;26.178;2023-03-21T02:01:01;3.25;;;2.05;;
64225;SDS011;50545;56.064;26.178;2023-03-21T02:03:30;2.85;;;1.90;;
64225;SDS011;50545;56.064;26.178;2023-03-21T02:06:10;3.53;;;2.13;;
64225;SDS011;50545;56.064;26.178;2023-03-21T02:08:40;3.15;;;1.92;;
64225;SDS011;50545;56.064;26.178;2023-03-21T02:11:07;2.67;;;1.80;;
64225;SDS011;50545;56.064;26.178;2023-03-21T02:13:35;4.50;;;1.77;;
64225;SDS011;50545;56.064;26.178;2023-03-21T02:16:13;2.55;;;1.70;;
64225;SDS011;50545;56.064;26.178;2023-03-21T02:19:17;2.05;;;1.58;;
64225;SDS011;50545;56.064;26.178;2023-03-21T02:25:33;2.78;;;1.90;;
64225;SDS011;50545;56.064;26.178;2023-03-21T02:42:18;2.47;;;1.80;;
64225;SDS011;50545;56.064;26.178;2023-03-21T02:47:40;2.72;;;1.90;;
64225;SDS011;50545;56.064;26.178;2023-03-21T02:50:14;2.80;;;2.00;;
64225;SDS011;50545;56.064;26.178;2023-03-21T02:52:56;5.60;;;2.00;;
64225;SDS011;50545;56.064;26.178;2023-03-21T02:55:27;2.92;;;2.00;;
64225;SDS011;50545;56.064;26.178;2023-03-21T02:57:58;4.35;;;2.40;;
64225;SDS011;50545;56.064;26.178;2023-03-21T03:00:38;2.97;;;2.03;;
64225;SDS011;50545;56.064;26.178;2023-03-21T03:03:09;4.63;;;2.20;;
64225;SDS011;50545;56.064;26.178;2023-03-21T03:05:50;3.80;;;2.40;;
64225;SDS011;50545;56.064;26.178;2023-03-21T03:11:18;3.90;;;2.22;;
64225;SDS011;50545;56.064;26.178;2023-03-21T03:13:53;3.72;;;2.10;;
64225;SDS011;50545;56.064;26.178;2023-03-21T03:22:47;3.30;;;2.05;;
64225;SDS011;50545;56.064;26.178;2023-03-21T03:25:19;4.28;;;2.25;;
64225;SDS011;50545;56.064;26.178;2023-03-21T03:28:08;3.83;;;2.30;;
64225;SDS011;50545;56.064;26.178;2023-03-21T03:30:36;4.32;;;2.38;;
64225;SDS011;50545;56.064;26.178;2023-03-21T03:33:16;2.97;;;1.95;;
64225;SDS011;50545;56.064;26.178;2023-03-21T03:35:49;3.70;;;1.90;;
64225;SDS011;50545;56.064;26.178;2023-03-21T03:38:31;4.32;;;2.50;;
64225;SDS011;50545;56.064;26.178;2023-03-21T03:41:01;3.78;;;2.13;;
64225;SDS011;50545;56.064;26.178;2023-03-21T03:43:45;3.95;;;2.42;;
64225;SDS011;50545;56.064;26.178;2023-03-21T03:46:33;4.60;;;2.60;;
64225;SDS011;50545;56.064;26.178;2023-03-21T03:49:10;4.80;;;2.53;;
64225;SDS011;50545;56.064;26.178;2023-03-21T03:51:54;6.45;;;2.80;;
64225;SDS011;50545;56.064;26.178;2023-03-21T03:54:27;3.83;;;2.55;;
64225;SDS011;50545;56.064;26.178;2023-03-21T03:57:04;3.53;;;2.40;;
64225;SDS011;50545;56.064;26.178;2023-03-21T03:59:35;3.45;;;2.20;;
64225;SDS011;50545;56.064;26.178;2023-03-21T04:02:03;3.85;;;2.30;;
64225;SDS011;50545;56.064;26.178;2023-03-21T04:04:31;4.38;;;2.38;;
64225;SDS011;50545;56.064;26.178;2023-03-21T04:06:59;3.63;;;2.38;;
64225;SDS011;50545;56.064;26.178;2023-03-21T04:09:29;3.92;;;2.53;;
64225;SDS011;50545;56.064;26.178;2023-03-21T04:12:09;4.20;;;2.50;;
64225;SDS011;50545;56.064;26.178;2023-03-21T04:14:36;4.55;;;2.60;;
64225;SDS011;50545;56.064;26.178;2023-03-21T04:17:10;4.07;;;2.38;;
64225;SDS011;50545;56.064;26.178;2023-03-21T04:19:38;4.10;;;2.72;;
64225;SDS011;50545;56.064;26.178;2023-03-21T04:22:05;4.28;;;2.50;;
64225;SDS011;50545;56.064;26.178;2023-03-21T04:24:32;3.38;;;2.20;;
64225;SDS011;50545;56.064;26.178;2023-03-21T04:27:02;5.40;;;3.45;;
64225;SDS011;50545;56.064;26.178;2023-03-21T04:29:31;5.28;;;2.88;;
64225;SDS011;50545;56.064;26.178;2023-03-21T04:31:58;5.28;;;3.20;;
64225;SDS011;50545;56.064;26.178;2023-03-21T04:34:27;3.88;;;2.50;;
64225;SDS011;50545;56.064;26.178;2023-03-21T04:36:54;2.47;;;1.50;;
64225;SDS011;50545;56.064;26.178;2023-03-21T04:39:21;4.50;;;2.53;;
64225;SDS011;50545;56.064;26.178;2023-03-21T04:41:50;5.25;;;2.85;;
64225;SDS011;50545;56.064;26.178;2023-03-21T04:44:17;3.75;;;2.25;;
64225;SDS011;50545;56.064;26.178;2023-03-21T04:46:44;4.80;;;2.70;;
64225;SDS011;50545;56.064;26.178;2023-03-21T04:49:12;4.00;;;2.30;;
64225;SDS011;50545;56.064;26.178;2023-03-21T04:51:40;4.65;;;2.80;;
64225;SDS011;50545;56.064;26.178;2023-03-21T04:54:09;4.53;;;2.65;;
64225;SDS011;50545;56.064;26.178;2023-03-21T04:56:38;4.82;;;2.80;;
64225;SDS011;50545;56.064;26.178;2023-03-21T04:59:15;4.40;;;2.50;;
64225;SDS011;50545;56.064;26.178;2023-03-21T05:01:42;4.22;;;2.38;;
64225;SDS011;50545;56.064;26.178;2023-03-21T05:04:10;4.28;;;2.63;;
64225;SDS011;50545;56.064;26.178;2023-03-21T05:06:40;5.33;;;3.00;;
64225;SDS011;50545;56.064;26.178;2023-03-21T05:09:10;5.05;;;2.70;;
64225;SDS011;50545;56.064;26.178;2023-03-21T05:11:39;5.22;;;2.60;;
64225;SDS011;50545;56.064;26.178;2023-03-21T05:14:07;6.07;;;2.85;;
64225;SDS011;50545;56.064;26.178;2023-03-21T05:16:39;5.32;;;3.20;;
64225;SDS011;50545;56.064;26.178;2023-03-21T05:19:14;5.95;;;3.45;;
64225;SDS011;50545;56.064;26.178;2023-03-21T05:21:43;5.57;;;3.17;;
64225;SDS011;50545;56.064;26.178;2023-03-21T05:24:14;4.38;;;2.45;;
64225;SDS011;50545;56.064;26.178;2023-03-21T05:26:43;3.95;;;2.33;;
64225;SDS011;50545;56.064;26.178;2023-03-21T05:29:16;5.50;;;2.70;;
64225;SDS011;50545;56.064;26.178;2023-03-21T05:31:44;5.05;;;2.88;;
64225;SDS011;50545;56.064;26.178;2023-03-21T05:34:13;4.25;;;2.35;;
64225;SDS011;50545;56.064;26.178;2023-03-21T05:36:40;5.07;;;2.80;;
64225;SDS011;50545;56.064;26.178;2023-03-21T05:39:08;5.25;;;2.65;;
64225;SDS011;50545;56.064;26.178;2023-03-21T05:41:35;6.68;;;3.10;;
64225;SDS011;50545;56.064;26.178;2023-03-21T05:44:03;5.20;;;3.00;;
64225;SDS011;50545;56.064;26.178;2023-03-21T05:46:30;6.68;;;3.50;;
64225;SDS011;50545;56.064;26.178;2023-03-21T05:48:57;6.25;;;3.38;;
64225;SDS011;50545;56.064;26.178;2023-03-21T05:51:24;7.28;;;4.10;;
64225;SDS011;50545;56.064;26.178;2023-03-21T05:53:51;6.72;;;4.00;;
64225;SDS011;50545;56.064;26.178;2023-03-21T05:56:19;6.15;;;3.17;;
64225;SDS011;50545;56.064;26.178;2023-03-21T05:58:46;7.70;;;4.03;;
64225;SDS011;50545;56.064;26.178;2023-03-21T06:01:13;7.88;;;3.90;;
64225;SDS011;50545;56.064;26.178;2023-03-21T06:03:41;7.68;;;4.40;;
64225;SDS011;50545;56.064;26.178;2023-03-21T06:06:08;5.68;;;3.58;;
64225;SDS011;50545;56.064;26.178;2023-03-21T06:08:36;6.30;;;3.45;;
64225;SDS011;50545;56.064;26.178;2023-03-21T06:11:07;7.50;;;3.90;;
64225;SDS011;50545;56.064;26.178;2023-03-21T06:13:58;8.68;;;4.50;;
64225;SDS011;50545;56.064;26.178;2023-03-21T06:16:25;6.30;;;3.40;;
64225;SDS011;50545;56.064;26.178;2023-03-21T06:18:54;8.05;;;4.38;;
64225;SDS011;50545;56.064;26.178;2023-03-21T06:21:22;8.70;;;4.05;;
64225;SDS011;50545;56.064;26.178;2023-03-21T06:23:52;7.43;;;4.03;;
64225;SDS011;50545;56.064;26.178;2023-03-21T06:26:19;8.00;;;4.30;;
64225;SDS011;50545;56.064;26.178;2023-03-21T06:28:49;8.65;;;4.80;;
64225;SDS011;50545;56.064;26.178;2023-03-21T06:31:16;10.25;;;4.80;;
64225;SDS011;50545;56.064;26.178;2023-03-21T06:33:44;8.25;;;5.10;;
64225;SDS011;50545;56.064;26.178;2023-03-21T06:36:11;8.00;;;3.63;;
64225;SDS011;50545;56.064;26.178;2023-03-21T06:38:38;6.53;;;3.40;;
64225;SDS011;50545;56.064;26.178;2023-03-21T06:41:07;7.18;;;4.05;;
64225;SDS011;50545;56.064;26.178;2023-03-21T06:43:35;6.80;;;3.25;;
64225;SDS011;50545;56.064;26.178;2023-03-21T06:46:02;6.75;;;3.88;;
64225;SDS011;50545;56.064;26.178;2023-03-21T06:48:29;4.72;;;2.75;;
64225;SDS011;50545;56.064;26.178;2023-03-21T06:50:57;6.20;;;3.28;;
64225;SDS011;50545;56.064;26.178;2023-03-21T06:53:25;8.05;;;3.92;;
64225;SDS011;50545;56.064;26.178;2023-03-21T06:55:55;8.65;;;4.32;;
64225;SDS011;50545;56.064;26.178;2023-03-21T06:58:23;9.52;;;5.10;;
64225;SDS011;50545;56.064;26.178;2023-03-21T07:00:50;6.28;;;3.22;;
64225;SDS011;50545;56.064;26.178;2023-03-21T07:03:17;4.90;;;2.72;;
64225;SDS011;50545;56.064;26.178;2023-03-21T07:05:44;5.68;;;3.10;;
64225;SDS011;50545;56.064;26.178;2023-03-21T07:08:12;5.38;;;2.85;;
64225;SDS011;50545;56.064;26.178;2023-03-21T07:10:40;4.72;;;2.75;;
64225;SDS011;50545;56.064;26.178;2023-03-21T07:13:10;4.93;;;3.05;;
64225;SDS011;50545;56.064;26.178;2023-03-21T07:15:38;5.45;;;3.20;;
64225;SDS011;50545;56.064;26.178;2023-03-21T07:18:07;4.53;;;2.70;;
64225;SDS011;50545;56.064;26.178;2023-03-21T07:20:35;5.97;;;3.20;;
64225;SDS011;50545;56.064;26.178;2023-03-21T07:23:05;4.88;;;2.88;;
64225;SDS011;50545;56.064;26.178;2023-03-21T07:25:33;4.47;;;2.25;;
64225;SDS011;50545;56.064;26.178;2023-03-21T07:28:00;5.30;;;2.70;;
64225;SDS011;50545;56.064;26.178;2023-03-21T07:30:28;5.15;;;2.88;;
64225;SDS011;50545;56.064;26.178;2023-03-21T07:32:55;10.75;;;7.20;;
64225;SDS011;50545;56.064;26.178;2023-03-21T07:35:23;6.72;;;4.10;;
64225;SDS011;50545;56.064;26.178;2023-03-21T07:37:50;5.30;;;2.90;;
64225;SDS011;50545;56.064;26.178;2023-03-21T07:40:17;5.60;;;3.08;;
64225;SDS011;50545;56.064;26.178;2023-03-21T07:42:44;5.65;;;3.08;;
64225;SDS011;50545;56.064;26.178;2023-03-21T07:45:13;5.20;;;2.50;;
64225;SDS011;50545;56.064;26.178;2023-03-21T07:47:47;4.90;;;2.80;;
64225;SDS011;50545;56.064;26.178;2023-03-21T07:50:14;5.53;;;2.30;;
64225;SDS011;50545;56.064;26.178;2023-03-21T07:52:42;4.50;;;2.42;;
64225;SDS011;50545;56.064;26.178;2023-03-21T07:55:10;5.13;;;2.30;;
64225;SDS011;50545;56.064;26.178;2023-03-21T07:57:37;4.68;;;2.28;;
64225;SDS011;50545;56.064;26.178;2023-03-21T08:00:05;3.75;;;2.50;;
64225;SDS011;50545;56.064;26.178;2023-03-21T08:02:33;3.85;;;2.00;;
64225;SDS011;50545;56.064;26.178;2023-03-21T08:05:01;4.35;;;2.38;;
64225;SDS011;50545;56.064;26.178;2023-03-21T08:07:29;4.85;;;2.40;;
64225;SDS011;50545;56.064;26.178;2023-03-21T08:09:56;4.28;;;2.30;;
64225;SDS011;50545;56.064;26.178;2023-03-21T08:12:23;4.40;;;2.45;;
64225;SDS011;50545;56.064;26.178;2023-03-21T08:14:51;3.50;;;2.25;;
64225;SDS011;50545;56.064;26.178;2023-03-21T08:17:18;3.75;;;1.90;;
64225;SDS011;50545;56.064;26.178;2023-03-21T08:19:45;3.63;;;2.17;;
64225;SDS011;50545;56.064;26.178;2023-03-21T08:22:12;3.45;;;2.00;;
64225;SDS011;50545;56.064;26.178;2023-03-21T08:24:39;3.28;;;2.00;;
64225;SDS011;50545;56.064;26.178;2023-03-21T08:27:06;3.92;;;1.83;;
64225;SDS011;50545;56.064;26.178;2023-03-21T08:29:34;2.55;;;1.77;;
64225;SDS011;50545;56.064;26.178;2023-03-21T08:32:05;2.67;;;1.58;;
64225;SDS011;50545;56.064;26.178;2023-03-21T08:34:33;3.28;;;1.80;;
64225;SDS011;50545;56.064;26.178;2023-03-21T08:37:01;1.92;;;1.38;;
64225;SDS011;50545;56.064;26.178;2023-03-21T08:39:28;1.30;;;1.20;;
64225;SDS011;50545;56.064;26.178;2023-03-21T08:41:55;2.38;;;1.27;;
64225;SDS011;50545;56.064;26.178;2023-03-21T08:44:22;1.60;;;1.13;;
64225;SDS011;50545;56.064;26.178;2023-03-21T08:46:51;1.60;;;1.30;;
64225;SDS011;50545;56.064;26.178;2023-03-21T08:49:18;2.05;;;1.30;;
64225;SDS011;50545;56.064;26.178;2023-03-21T08:51:46;1.42;;;1.20;;
64225;SDS011;50545;56.064;26.178;2023-03-21T08:54:19;2.13;;;1.20;;
64225;SDS011;50545;56.064;26.178;2023-03-21T08:56:47;1.35;;;1.00;;
64225;SDS011;50545;56.064;26.178;2023-03-21T08:59:14;1.10;;;0.95;;
64225;SDS011;50545;56.064;26.178;2023-03-21T09:01:41;1.38;;;0.93;;
64225;SDS011;50545;56.064;26.178;2023-03-21T09:04:09;1.50;;;1.10;;
64225;SDS011;50545;56.064;26.178;2023-03-21T09:06:37;1.52;;;1.15;;
64225;SDS011;50545;56.064;26.178;2023-03-21T09:09:06;1.27;;;1.17;;
64225;SDS011;50545;56.064;26.178;2023-03-21T09:11:34;1.55;;;1.13;;
64225;SDS011;50545;56.064;26.178;2023-03-21T09:14:01;1.40;;;1.10;;
64225;SDS011;50545;56.064;26.178;2023-03-21T09:16:29;1.80;;;1.38;;
64225;SDS011;50545;56.064;26.178;2023-03-21T09:18:56;1.58;;;1.25;;
64225;SDS011;50545;56.064;26.178;2023-03-21T09:21:25;1.17;;;0.98;;
64225;SDS011;50545;56.064;26.178;2023-03-21T09:23:53;1.45;;;1.35;;
64225;SDS011;50545;56.064;26.178;2023-03-21T09:26:24;1.63;;;1.13;;
64225;SDS011;50545;56.064;26.178;2023-03-21T09:28:54;2.10;;;1.48;;
64225;SDS011;50545;56.064;26.178;2023-03-21T09:31:21;2.13;;;1.50;;
64225;SDS011;50545;56.064;26.178;2023-03-21T09:33:53;1.98;;;1.48;;
64225;SDS011;50545;56.064;26.178;2023-03-21T09:36:21;3.30;;;1.65;;
64225;SDS011;50545;56.064;26.178;2023-03-21T09:38:50;2.65;;;1.65;;
64225;SDS011;50545;56.064;26.178;2023-03-21T09:41:35;2.25;;;1.63;;
64225;SDS011;50545;56.064;26.178;2023-03-21T09:50:12;2.58;;;1.70;;
64225;SDS011;50545;56.064;26.178;2023-03-21T09:55:34;3.33;;;2.30;;
64225;SDS011;50545;56.064;26.178;2023-03-21T09:58:05;3.42;;;1.92;;
64225;SDS011;50545;56.064;26.178;2023-03-21T10:00:51;4.15;;;2.40;;
64225;SDS011;50545;56.064;26.178;2023-03-21T10:03:33;3.13;;;2.13;;
64225;SDS011;50545;56.064;26.178;2023-03-21T10:06:04;3.70;;;2.45;;
64225;SDS011;50545;56.064;26.178;2023-03-21T10:08:39;3.95;;;2.40;;
64225;SDS011;50545;56.064;26.178;2023-03-21T10:11:16;3.60;;;2.30;;
64225;SDS011;50545;56.064;26.178;2023-03-21T10:13:52;4.30;;;2.20;;
64225;SDS011;50545;56.064;26.178;2023-03-21T10:16:33;4.20;;;2.50;;
64225;SDS011;50545;56.064;26.178;2023-03-21T10:19:10;2.17;;;1.77;;
64225;SDS011;50545;56.064;26.178;2023-03-21T10:21:42;3.03;;;2.00;;
64225;SDS011;50545;56.064;26.178;2023-03-21T10:24:30;2.20;;;1.48;;
64225;SDS011;50545;56.064;26.178;2023-03-21T10:27:00;2.13;;;1.55;;
64225;SDS011;50545;56.064;26.178;2023-03-21T10:29:33;2.25;;;1.70;;
64225;SDS011;50545;56.064;26.178;2023-03-21T10:32:09;1.63;;;1.20;;
64225;SDS011;50545;56.064;26.178;2023-03-21T10:37:09;1.67;;;1.40;;
64225;SDS011;50545;56.064;26.178;2023-03-21T10:39:39;1.83;;;1.60;;
64225;SDS011;50545;56.064;26.178;2023-03-21T10:42:15;2.40;;;1.60;;
64225;SDS011;50545;56.064;26.178;2023-03-21T10:44:50;2.38;;;1.63;;
64225;SDS011;50545;56.064;26.178;2023-03-21T10:47:26;2.20;;;1.70;;
64225;SDS011;50545;56.064;26.178;2023-03-21T10:50:04;2.38;;;1.48;;
64225;SDS011;50545;56.064;26.178;2023-03-21T10:52:36;2.10;;;1.55;;
64225;SDS011;50545;56.064;26.178;2023-03-21T10:57:47;3.25;;;1.48;;
64225;SDS011;50545;56.064;26.178;2023-03-21T11:00:22;2.65;;;1.60;;
64225;SDS011;50545;56.064;26.178;2023-03-21T11:02:53;2.92;;;1.33;;
64225;SDS011;50545;56.064;26.178;2023-03-21T11:05:24;4.00;;;1.60;;
64225;SDS011;50545;56.064;26.178;2023-03-21T11:08:10;5.07;;;2.10;;
64225;SDS011;50545;56.064;26.178;2023-03-21T11:10:48;4.35;;;2.35;;
64225;SDS011;50545;56.064;26.178;2023-03-21T11:13:18;2.45;;;1.80;;
64225;SDS011;50545;56.064;26.178;2023-03-21T11:15:55;4.35;;;1.75;;
64225;SDS011;50545;56.064;26.178;2023-03-21T11:18:25;1.33;;;1.10;;
64225;SDS011;50545;56.064;26.178;2023-03-21T11:20:57;2.55;;;1.40;;
64225;SDS011;50545;56.064;26.178;2023-03-21T11:23:30;2.05;;;1.15;;
64225;SDS011;50545;56.064;26.178;2023-03-21T11:26:01;1.20;;;1.10;;
64225;SDS011;50545;56.064;26.178;2023-03-21T11:28:37;1.52;;;1.15;;
64225;SDS011;50545;56.064;26.178;2023-03-21T11:31:07;1.40;;;1.30;;
64225;SDS011;50545;56.064;26.178;2023-03-21T11:33:39;3.13;;;1.40;;
64225;SDS011;50545;56.064;26.178;2023-03-21T11:38:49;2.03;;;1.40;;
64225;SDS011;50545;56.064;26.178;2023-03-21T11:41:27;1.63;;;1.42;;
64225;SDS011;50545;56.064;26.178;2023-03-21T11:43:57;1.42;;;1.20;;
64225;SDS011;50545;56.064;26.178;2023-03-21T11:46:27;1.17;;;1.08;;
64225;SDS011;50545;56.064;26.178;2023-03-21T11:48:57;1.23;;;1.13;;
64225;SDS011;50545;56.064;26.178;2023-03-21T11:56:33;1.20;;;1.10;;
64225;SDS011;50545;56.064;26.178;2023-03-21T12:04:39;1.15;;;0.95;;
64225;SDS011;50545;56.064;26.178;2023-03-21T12:15:43;1.95;;;1.75;;
64225;SDS011;50545;56.064;26.178;2023-03-21T12:24:30;2.35;;;1.70;;
64225;SDS011;50545;56.064;26.178;2023-03-21T12:27:15;1.77;;;1.27;;
64225;SDS011;50545;56.064;26.178;2023-03-21T12:38:24;2.33;;;1.80;;
64225;SDS011;50545;56.064;26.178;2023-03-21T12:43:40;2.80;;;1.60;;
64225;SDS011;50545;56.064;26.178;2023-03-21T12:48:41;1.50;;;1.40;;
64225;SDS011;50545;56.064;26.178;2023-03-21T12:51:14;1.85;;;1.60;;
64225;SDS011;50545;56.064;26.178;2023-03-21T12:56:28;2.60;;;1.70;;
64225;SDS011;50545;56.064;26.178;2023-03-21T13:07:54;2.15;;;1.10;;
64225;SDS011;50545;56.064;26.178;2023-03-21T13:10:35;1.40;;;1.30;;
64225;SDS011;50545;56.064;26.178;2023-03-21T13:18:43;1.10;;;1.00;;
64225;SDS011;50545;56.064;26.178;2023-03-21T13:21:38;1.10;;;1.10;;
64225;SDS011;50545;56.064;26.178;2023-03-21T13:24:37;1.17;;;1.08;;
64225;SDS011;50545;56.064;26.178;2023-03-21T13:30:00;1.48;;;1.20;;
64225;SDS011;50545;56.064;26.178;2023-03-21T13:35:02;1.05;;;1.00;;
64225;SDS011;50545;56.064;26.178;2023-03-21T13:37:42;1.13;;;0.90;;
64225;SDS011;50545;56.064;26.178;2023-03-21T13:42:53;0.70;;;0.70;;
64225;SDS011;50545;56.064;26.178;2023-03-21T13:45:32;0.70;;;0.68;;
64225;SDS011;50545;56.064;26.178;2023-03-21T13:48:39;0.90;;;0.90;;
64225;SDS011;50545;56.064;26.178;2023-03-21T13:51:15;0.80;;;0.80;;
64225;SDS011;50545;56.064;26.178;2023-03-21T13:56:49;1.48;;;1.00;;
64225;SDS011;50545;56.064;26.178;2023-03-21T14:04:56;1.27;;;1.05;;
64225;SDS011;50545;56.064;26.178;2023-03-21T14:07:46;2.58;;;1.20;;
64225;SDS011;50545;56.064;26.178;2023-03-21T14:10:25;3.03;;;1.50;;
64225;SDS011;50545;56.064;26.178;2023-03-21T14:13:01;1.05;;;0.90;;
64225;SDS011;50545;56.064;26.178;2023-03-21T14:15:41;1.00;;;1.00;;
64225;SDS011;50545;56.064;26.178;2023-03-21T14:18:22;0.93;;;0.90;;
64225;SDS011;50545;56.064;26.178;2023-03-21T14:21:18;1.00;;;0.90;;
64225;SDS011;50545;56.064;26.178;2023-03-21T14:23:56;0.90;;;0.90;;
64225;SDS011;50545;56.064;26.178;2023-03-21T14:26:26;1.00;;;0.80;;
64225;SDS011;50545;56.064;26.178;2023-03-21T14:29:00;0.77;;;0.73;;
64225;SDS011;50545;56.064;26.178;2023-03-21T14:31:50;0.98;;;0.90;;
64225;SDS011;50545;56.064;26.178;2023-03-21T14:34:18;0.70;;;0.70;;
64225;SDS011;50545;56.064;26.178;2023-03-21T14:36:47;0.80;;;0.80;;
64225;SDS011;50545;56.064;26.178;2023-03-21T14:39:28;1.10;;;0.88;;
64225;SDS011;50545;56.064;26.178;2023-03-21T14:42:01;0.80;;;0.80;;
64225;SDS011;50545;56.064;26.178;2023-03-21T14:44:32;0.63;;;0.60;;
64225;SDS011;50545;56.064;26.178;2023-03-21T14:47:21;1.00;;;0.90;;
64225;SDS011;50545;56.064;26.178;2023-03-21T14:52:24;2.47;;;1.02;;
64225;SDS011;50545;56.064;26.178;2023-03-21T14:54:51;2.67;;;1.20;;
64225;SDS011;50545;56.064;26.178;2023-03-21T14:57:21;1.50;;;0.93;;
64225;SDS011;50545;56.064;26.178;2023-03-21T14:59:51;1.00;;;0.80;;
64225;SDS011;50545;56.064;26.178;2023-03-21T15:04:58;0.73;;;0.70;;
64225;SDS011;50545;56.064;26.178;2023-03-21T15:07:54;0.73;;;0.60;;
64225;SDS011;50545;56.064;26.178;2023-03-21T15:10:27;0.70;;;0.70;;
64225;SDS011;50545;56.064;26.178;2023-03-21T15:12:58;1.05;;;0.98;;
64225;SDS011;50545;56.064;26.178;2023-03-21T15:15:28;0.70;;;0.70;;
64225;SDS011;50545;56.064;26.178;2023-03-21T15:17:59;0.55;;;0.55;;
64225;SDS011;50545;56.064;26.178;2023-03-21T15:20:32;0.75;;;0.70;;
64225;SDS011;50545;56.064;26.178;2023-03-21T15:23:05;1.38;;;0.90;;
64225;SDS011;50545;56.064;26.178;2023-03-21T15:25:39;0.88;;;0.80;;
64225;SDS011;50545;56.064;26.178;2023-03-21T15:28:08;0.52;;;0.52;;
64225;SDS011;50545;56.064;26.178;2023-03-21T15:30:45;1.45;;;0.80;;
64225;SDS011;50545;56.064;26.178;2023-03-21T15:33:17;0.70;;;0.70;;
64225;SDS011;50545;56.064;26.178;2023-03-21T15:35:48;0.98;;;0.80;;
64225;SDS011;50545;56.064;26.178;2023-03-21T15:38:39;0.70;;;0.70;;
64225;SDS011;50545;56.064;26.178;2023-03-21T15:43:47;0.63;;;0.63;;
64225;SDS011;50545;56.064;26.178;2023-03-21T15:46:32;2.72;;;0.77;;
64225;SDS011;50545;56.064;26.178;2023-03-21T15:49:29;0.85;;;0.68;;
64225;SDS011;50545;56.064;26.178;2023-03-21T15:52:11;0.68;;;0.68;;
64225;SDS011;50545;56.064;26.178;2023-03-21T15:57:25;0.63;;;0.63;;
64225;SDS011;50545;56.064;26.178;2023-03-21T16:00:06;0.63;;;0.63;;
64225;SDS011;50545;56.064;26.178;2023-03-21T16:02:55;0.93;;;0.77;;
64225;SDS011;50545;56.064;26.178;2023-03-21T16:05:26;0.77;;;0.70;;
64225;SDS011;50545;56.064;26.178;2023-03-21T16:07:57;0.60;;;0.60;;
64225;SDS011;50545;56.064;26.178;2023-03-21T16:10:44;1.63;;;1.15;;
64225;SDS011;50545;56.064;26.178;2023-03-21T16:13:11;1.23;;;0.88;;
64225;SDS011;50545;56.064;26.178;2023-03-21T16:15:43;1.30;;;1.08;;
64225;SDS011;50545;56.064;26.178;2023-03-21T16:18:12;1.20;;;1.10;;
64225;SDS011;50545;56.064;26.178;2023-03-21T16:20:42;1.40;;;1.00;;
64225;SDS011;50545;56.064;26.178;2023-03-21T16:23:13;1.08;;;0.90;;
64225;SDS011;50545;56.064;26.178;2023-03-21T16:28:10;1.10;;;1.00;;
64225;SDS011;50545;56.064;26.178;2023-03-21T16:30:40;0.77;;;0.70;;
64225;SDS011;50545;56.064;26.178;2023-03-21T16:33:10;1.63;;;1.15;;
64225;SDS011;50545;56.064;26.178;2023-03-21T16:35:38;1.70;;;0.80;;
64225;SDS011;50545;56.064;26.178;2023-03-21T16:38:06;1.08;;;0.98;;
64225;SDS011;50545;56.064;26.178;2023-03-21T16:40:36;2.40;;;1.27;;
64225;SDS011;50545;56.064;26.178;2023-03-21T16:43:05;1.58;;;1.48;;
64225;SDS011;50545;56.064;26.178;2023-03-21T16:45:33;0.88;;;0.88;;
64225;SDS011;50545;56.064;26.178;2023-03-21T16:48:01;1.25;;;1.10;;
64225;SDS011;50545;56.064;26.178;2023-03-21T16:50:33;1.45;;;1.30;;
64225;SDS011;50545;56.064;26.178;2023-03-21T16:53:05;2.03;;;1.33;;
64225;SDS011;50545;56.064;26.178;2023-03-21T16:55:33;1.00;;;1.00;;
64225;SDS011;50545;56.064;26.178;2023-03-21T16:58:03;1.77;;;1.20;;
64225;SDS011;50545;56.064;26.178;2023-03-21T17:00:31;1.52;;;1.02;;
64225;SDS011;50545;56.064;26.178;2023-03-21T17:02:59;1.40;;;1.20;;
64225;SDS011;50545;56.064;26.178;2023-03-21T17:05:28;1.47;;;1.33;;
64225;SDS011;50545;56.064;26.178;2023-03-21T17:07:56;1.83;;;1.25;;
64225;SDS011;50545;56.064;26.178;2023-03-21T17:10:28;4.18;;;1.40;;
64225;SDS011;50545;56.064;26.178;2023-03-21T17:12:57;0.98;;;0.90;;
64225;SDS011;50545;56.064;26.178;2023-03-21T17:15:24;1.75;;;1.25;;
64225;SDS011;50545;56.064;26.178;2023-03-21T17:17:52;1.02;;;0.98;;
64225;SDS011;50545;56.064;26.178;2023-03-21T17:20:22;0.90;;;0.90;;